Data for 07/12/2010

Time Sea-Level Adjusted Pressure Absolute Pressure Temperature Relative Humidity Dew Point   
(mb) (inHg) (mb) (inHg) (C) (F) (%) (C) (F)
00:05 1014 29.94 843 24.89 17.4 63.3 64 10.5 51
00:10 1014 29.94 843 24.89 17.2 63 63 10.3 50.5
00:15 1014 29.94 843 24.89 17.2 63 62 10.1 50.1
00:20 1014 29.94 843 24.89 17.1 62.7 63 10.1 50.2
00:25 1014 29.94 843 24.89 16.9 62.4 65 10.3 50.5
00:30 1014 29.94 843 24.89 16.8 62.3 66 10.4 50.8
00:35 1014 29.94 843 24.89 16.7 62 67 10.6 51.1
00:40 1014 29.94 843 24.89 16.7 62.1 68 10.9 51.6
00:45 1014 29.94 843 24.89 16.7 62 70 11.3 52.3
00:50 1014 29.94 843 24.89 16.5 61.7 70 11.1 51.9
00:55 1014 29.94 843 24.89 16.5 61.6 70 11.1 51.9
01:00 1014 29.94 843 24.89 16.5 61.6 69 10.7 51.3
01:05 1014 29.94 843 24.89 16.3 61.3 68 10.4 50.8
01:10 1014 29.94 843 24.89 16.1 61 67 10.1 50.2
01:15 1014 29.94 843 24.89 16.2 61.1 62 8.9 48
01:20 1014 29.94 843 24.89 16.1 61 64 9.3 48.8
01:25 1014 29.94 843 24.89 16.1 61 66 9.9 49.7
01:30 1014 29.94 843 24.89 16 60.9 68 10.2 50.4
01:35 1014 29.94 843 24.89 15.9 60.6 70 10.5 50.8
01:40 1014 29.94 843 24.89 15.8 60.4 70 10.4 50.7
01:45 1014 29.94 843 24.89 15.6 60.1 71 10.4 50.8
01:50 1014 29.94 843 24.89 15.5 59.9 70 10.2 50.3
01:55 1014 29.94 843 24.89 15.4 59.6 70 9.9 49.9
02:00 1013 29.91 843 24.89 15.4 59.6 68 9.6 49.4
02:05 1013 29.91 843 24.89 15.2 59.4 70 9.8 49.7
02:10 1013 29.91 843 24.89 15.2 59.3 69 9.7 49.4
02:15 1013 29.91 843 24.89 15.1 59.1 68 9.2 48.5
02:20 1013 29.91 843 24.89 14.9 58.8 68 9.1 48.5
02:25 1013 29.91 843 24.89 14.8 58.6 68 9 48.3
02:30 1013 29.91 842 24.86 14.6 58.3 68 8.9 47.9
02:35 1013 29.91 842 24.86 14.5 58.2 70 9.1 48.4
02:40 1013 29.91 842 24.86 14.5 58.2 70 9.1 48.4
02:45 1013 29.91 842 24.86 14.6 58.2 70 9.3 48.7
02:50 1013 29.91 842 24.86 14.7 58.4 69 9.1 48.4
02:55 1013 29.91 842 24.86 14.7 58.4 69 9.1 48.3
03:00 1013 29.91 842 24.86 14.6 58.3 69 9 48.2
03:05 1013 29.91 842 24.86 14.5 58.2 69 9 48.2
03:10 1013 29.91 842 24.86 14.4 58 70 9.1 48.3
03:15 1013 29.91 842 24.86 14.3 57.8 71 9.1 48.5
03:20 1013 29.91 842 24.86 14.2 57.5 71 9 48.2
03:25 1013 29.91 842 24.86 14.1 57.3 70 8.7 47.7
03:30 1013 29.91 842 24.86 14 57.3 70 8.6 47.5
03:35 1013 29.91 842 24.86 14 57.2 70 8.7 47.6
03:40 1013 29.91 842 24.86 14.1 57.4 69 8.7 47.6
03:45 1013 29.91 842 24.86 14.1 57.4 69 8.6 47.4
03:50 1013 29.91 842 24.86 14 57.2 69 8.5 47.2
03:55 1013 29.91 842 24.86 14.2 57.6 68 8.5 47.3
04:00 1013 29.91 842 24.86 14.5 58 67 8.4 47.2
04:05 1013 29.91 842 24.86 14.5 58.1 67 8.5 47.3
04:10 1013 29.91 842 24.86 14.3 57.7 68 8.6 47.4
04:15 1013 29.91 842 24.86 14.1 57.3 69 8.5 47.4
04:20 1012 29.88 842 24.86 14 57.2 69 8.5 47.3
04:25 1012 29.88 842 24.86 13.9 57 69 8.4 47.1
04:30 1012 29.88 842 24.86 13.8 56.8 70 8.5 47.3
04:35 1012 29.88 842 24.86 13.6 56.4 72 8.6 47.4
04:40 1012 29.88 842 24.86 13.4 56.2 71 8.4 47.1
04:45 1012 29.88 842 24.86 13.6 56.5 70 8.3 46.9
04:50 1012 29.88 841 24.83 13.7 56.6 69 8.1 46.6
04:55 1012 29.88 841 24.83 13.8 56.9 67 7.9 46.3
05:00 1012 29.88 841 24.83 14 57.2 66 7.8 46.1
05:05 1012 29.88 841 24.83 14 57.3 66 7.9 46.1
05:10 1012 29.88 841 24.83 13.9 57.1 67 8 46.4
05:15 1012 29.88 841 24.83 13.8 56.8 68 8.1 46.5
05:20 1012 29.88 841 24.83 13.8 56.8 67 7.9 46.1
05:25 1012 29.88 841 24.83 13.9 57.1 67 8 46.4
05:30 1012 29.88 841 24.83 13.9 57.1 67 8 46.4
05:35 1012 29.88 841 24.83 13.7 56.7 69 8.1 46.6
05:40 1012 29.88 841 24.83 13.6 56.4 69 8.1 46.6
05:45 1012 29.88 841 24.83 13.7 56.7 68 8.1 46.5
05:50 1012 29.88 841 24.83 13.7 56.6 69 8.2 46.7
05:55 1012 29.88 841 24.83 13.5 56.4 70 8.1 46.6
06:00 1012 29.88 841 24.83 13.7 56.6 69 8.1 46.6
06:05 1012 29.88 841 24.83 13.7 56.7 67 7.8 46.1
06:10 1012 29.88 841 24.83 13.8 56.8 66 7.7 45.8
06:15 1012 29.88 841 24.83 13.9 57.1 67 7.9 46.2
06:20 1012 29.88 841 24.83 13.7 56.7 68 8 46.3
06:25 1012 29.88 841 24.83 13.5 56.3 69 7.9 46.3
06:30 1012 29.88 841 24.83 13.4 56.2 69 7.8 46
06:35 1012 29.88 841 24.83 13.6 56.5 68 7.8 46
06:40 1012 29.88 841 24.83 13.9 57 67 7.8 46.1
06:45 1012 29.88 841 24.83 14.1 57.4 64 7.6 45.7
06:50 1012 29.88 841 24.83 14.5 58.2 62 7.5 45.4
06:55 1012 29.88 841 24.83 14.8 58.7 64 8 46.5
07:00 1012 29.88 841 24.83 14.8 58.6 64 8.1 46.6
07:05 1012 29.88 841 24.83 14.8 58.7 64 8.2 46.8
07:10 1012 29.88 841 24.83 14.8 58.6 64 8.2 46.8
07:15 1012 29.88 841 24.83 15 58.9 64 8.3 46.9
07:20 1012 29.88 841 24.83 15.3 59.6 63 8.3 47
07:25 1012 29.88 841 24.83 15.6 60 63 8.5 47.4
07:30 1012 29.88 841 24.83 16.2 61.1 60 8.5 47.2
07:35 1012 29.88 841 24.83 16.3 61.3 60 8.5 47.3
07:40 1012 29.88 841 24.83 17 62.5 58 8.8 47.8
07:45 1012 29.88 841 24.83 17.2 62.9 57 8.8 47.8
07:50 1012 29.88 841 24.83 17.3 63.1 56 8.6 47.5
07:55 1012 29.88 841 24.83 17.9 64.3 54 8.6 47.5
08:00 1012 29.88 841 24.83 18.6 65.4 53 9 48.2
08:05 1012 29.88 841 24.83 19 66.2 51 8.9 48
08:10 1012 29.88 841 24.83 19.2 66.5 50 8.8 47.8
08:15 1012 29.88 841 24.83 19.3 66.7 49 8.4 47
08:20 1012 29.88 841 24.83 19.3 66.7 50 8.8 47.9
08:25 1012 29.88 841 24.83 19.4 66.8 50 8.8 47.9
08:30 1012 29.88 841 24.83 19.6 67.3 48 8.5 47.3
08:35 1012 29.88 841 24.83 20.2 68.3 48 8.9 48
08:40 1012 29.88 841 24.83 21 69.9 47 9.5 49.1
08:45 1012 29.88 841 24.83 21 69.8 47 9.4 48.9
08:50 1011 29.85 841 24.83 20.8 69.5 46 9 48.2
08:55 1011 29.85 841 24.83 21.2 70.2 42 8.1 46.6
09:00 1011 29.85 841 24.83 21.4 70.4 42 8.2 46.8
09:05 1011 29.85 841 24.83 21.5 70.8 42 8.2 46.7
09:10 1011 29.85 841 24.83 22 71.6 41 8.4 47.1
09:15 1011 29.85 841 24.83 21.7 71 43 8.6 47.5
09:20 1011 29.85 840 24.81 21.5 70.7 42 8.4 47.1
09:25 1011 29.85 840 24.81 22.5 72.5 41 8.7 47.6
09:30 1011 29.85 840 24.81 22.7 72.8 44 10.1 50.3
09:35 1011 29.85 840 24.81 22.7 72.8 41 9 48.2
09:40 1011 29.85 840 24.81 23.3 73.9 40 9.1 48.4
09:45 1011 29.85 840 24.81 23.5 74.3 40 9.4 48.8
09:50 1011 29.85 840 24.81 23.7 74.6 39 9.1 48.3
09:55 1011 29.85 840 24.81 23.6 74.5 41 9.9 49.7
10:00 1011 29.85 840 24.81 23.6 74.4 37 8.4 47.1
10:05 1011 29.85 840 24.81 23.7 74.7 40 9.4 48.9
10:10 1011 29.85 840 24.81 23.5 74.3 41 9.6 49.2
10:15 1011 29.85 840 24.81 23.9 75 35 7.7 45.8
10:20 1011 29.85 840 24.81 24.9 76.7 34 8.1 46.6
10:25 1011 29.85 840 24.81 24.2 75.5 37 8.8 47.8
10:30 1011 29.85 840 24.81 24.4 75.9 38 9.3 48.7
10:35 1011 29.85 840 24.81 25.3 77.6 36 9.6 49.2
10:40 1010 29.83 840 24.81 24.8 76.7 37 9.3 48.8
10:45 1010 29.83 839 24.78 24.7 76.5 36 9.1 48.3
10:50 1010 29.83 839 24.78 25 77.1 38 9.9 49.9
10:55 1010 29.83 839 24.78 24.9 76.7 36 9 48.2
11:00 1010 29.83 839 24.78 25.7 78.2 32 8.2 46.7
11:05 1010 29.83 839 24.78 26 78.8 32 8.2 46.7
11:10 1010 29.83 839 24.78 26.1 79 27 6.1 43
11:15 1010 29.83 839 24.78 26.2 79.2 26 5.5 41.9
11:20 1010 29.83 839 24.78 26.2 79.1 26 5.2 41.4
11:25 1010 29.83 839 24.78 26.1 78.9 26 5.1 41.2
11:30 1010 29.83 839 24.78 26.1 79 25 5.1 41.2
11:35 1010 29.83 839 24.78 26.1 78.9 25 4.8 40.7
11:40 1009 29.8 839 24.78 26.6 79.8 24 4.6 40.3
11:45 1009 29.8 839 24.78 26.5 79.8 24 4.9 40.7
11:50 1009 29.8 839 24.78 26.6 79.9 24 4.6 40.3
11:55 1009 29.8 838 24.75 26.7 80 24 4.8 40.7
12:00 1009 29.8 838 24.75 27 80.6 24 5 41
12:05 1009 29.8 838 24.75 27.2 81 24 4.9 40.9
12:10 1009 29.8 838 24.75 27.3 81.2 24 5.1 41.2
12:15 1009 29.8 838 24.75 27.3 81.1 24 5.4 41.8
12:20 1009 29.8 838 24.75 27.5 81.5 24 5.5 41.9
12:25 1009 29.8 838 24.75 27.6 81.7 23 5.1 41.1
12:30 1009 29.8 838 24.75 27.3 81.1 24 5.3 41.5
12:35 1009 29.8 838 24.75 27.8 82.1 23 5.2 41.4
12:40 1009 29.8 838 24.75 27.8 82 21 3.7 38.6
12:45 1009 29.8 838 24.75 28.2 82.7 21 4 39.2
12:50 1009 29.8 838 24.75 28.3 83 20 3.9 39
12:55 1009 29.8 838 24.75 27.9 82.3 21 3.6 38.5
13:00 1009 29.8 838 24.75 28 82.5 21 4.2 39.6
13:05 1008 29.77 838 24.75 28.3 83 21 4.6 40.2
13:10 1008 29.77 838 24.75 28.8 83.8 21 4.5 40.1
13:15 1008 29.77 838 24.75 28.9 84.1 21 5 41.1
13:20 1008 29.77 838 24.75 28.9 84.1 21 4.8 40.7
13:25 1008 29.77 838 24.75 29.1 84.4 20 4.4 39.9
13:30 1008 29.77 838 24.75 29 84.3 19 3.1 37.5
13:35 1008 29.77 838 24.75 28.8 83.8 18 2.2 35.9
13:40 1008 29.77 837 24.72 28.8 83.9 17 2 35.6
13:45 1008 29.77 837 24.72 29.1 84.3 19 3.8 38.8
13:50 1008 29.77 837 24.72 29.3 84.8 18 2.7 36.8
13:55 1008 29.77 837 24.72 28.8 83.9 17 1.8 35.2
14:00 1008 29.77 837 24.72 29.2 84.5 16 1.5 34.7
14:05 1008 29.77 837 24.72 29.1 84.3 15 0.4 32.7
14:10 1008 29.77 837 24.72 29 84.2 14 -0.6 30.8
14:15 1008 29.77 837 24.72 29.1 84.3 14 -0.8 30.5
14:20 1008 29.77 837 24.72 29.1 84.4 14 -0.5 31.1
14:25 1008 29.77 837 24.72 29.2 84.5 15 0.4 32.7
14:30 1008 29.77 837 24.72 29.5 85.1 15 0.5 32.9
14:35 1008 29.77 837 24.72 29.3 84.7 15 0 32.1
14:40 1007 29.74 837 24.72 28.8 83.8 17 1.3 34.3
14:45 1007 29.74 837 24.72 29.4 84.9 14 -0.8 30.5
14:50 1007 29.74 837 24.72 29.2 84.5 15 -0.1 31.8
14:55 1007 29.74 837 24.72 29.5 85.1 15 0.3 32.5
15:00 1007 29.74 836 24.69 29.4 84.9 15 0 32
15:05 1007 29.74 836 24.69 29.6 85.2 14 -0.2 31.6
15:10 1007 29.74 836 24.69 29.7 85.5 14 0.2 32.3
15:15 1007 29.74 836 24.69 29.7 85.5 15 0.3 32.6
15:20 1007 29.74 836 24.69 29.9 85.8 15 0.4 32.8
15:25 1007 29.74 836 24.69 29.9 85.8 15 1.2 34.1
15:30 1007 29.74 836 24.69 30.2 86.3 14 0.1 32.2
15:35 1007 29.74 836 24.69 29.7 85.5 13 -0.9 30.4
15:40 1007 29.74 836 24.69 30.1 86.1 14 -0.1 31.9
15:45 1007 29.74 836 24.69 30.1 86.2 13 -0.8 30.6
15:50 1007 29.74 836 24.69 30.1 86.1 13 -0.5 31.1
15:55 1007 29.74 836 24.69 30.1 86.2 13 -0.7 30.7
16:00 1007 29.74 836 24.69 30.2 86.3 13 -0.7 30.7
16:05 1007 29.74 836 24.69 30.4 86.7 14 0.3 32.6
16:10 1007 29.74 836 24.69 30.2 86.4 13 -1.2 29.8
16:15 1007 29.74 836 24.69 29.9 85.8 13 -0.7 30.8
16:20 1007 29.74 836 24.69 29.7 85.5 13 -1.4 29.4
16:25 1007 29.74 836 24.69 29.6 85.2 14 -0.7 30.7
16:30 1007 29.74 836 24.69 29.3 84.7 13 -1.2 29.8
16:35 1007 29.74 836 24.69 30 86 13 -1.1 30.1
16:40 1007 29.74 836 24.69 30 85.9 14 0.3 32.6
16:45 1007 29.74 836 24.69 29.3 84.7 14 -0.8 30.6
16:50 1007 29.74 836 24.69 28.8 83.8 14 -0.6 30.9
16:55 1007 29.74 836 24.69 28.6 83.6 14 -0.8 30.5
17:00 1007 29.74 836 24.69 28.5 83.3 14 -1 30.3
17:05 1007 29.74 836 24.69 28.4 83.1 15 -0.6 30.9
17:10 1007 29.74 836 24.69 28.3 82.9 14 -1.3 29.6
17:15 1007 29.74 836 24.69 28.9 83.9 14 -1.2 29.9
17:20 1007 29.74 836 24.69 29.9 85.8 14 0 32.1
17:25 1007 29.74 836 24.69 30.2 86.3 14 -0.2 31.7
17:30 1006 29.71 836 24.69 30.1 86.2 14 -0.1 31.8
17:35 1007 29.74 836 24.69 29.8 85.6 14 -0.1 31.8
17:40 1007 29.74 836 24.69 29.9 85.8 13 -0.7 30.7
17:45 1006 29.71 836 24.69 30 85.9 14 -0.4 31.3
17:50 1006 29.71 836 24.69 29.2 84.6 15 0.1 32.3
17:55 1006 29.71 836 24.69 29.2 84.5 15 0.6 33.1
18:00 1006 29.71 836 24.69 29.2 84.5 17 2 35.7
18:05 1006 29.71 836 24.69 28.8 83.9 16 1.1 34
18:10 1006 29.71 836 24.69 29.3 84.7 15 0.3 32.5
18:15 1006 29.71 836 24.69 29.6 85.3 15 0.4 32.8
18:20 1006 29.71 836 24.69 29.8 85.6 14 0.1 32.2
18:25 1006 29.71 836 24.69 29.3 84.8 14 -0.2 31.6
18:30 1006 29.71 836 24.69 28.9 84.1 15 -0.3 31.5
18:35 1007 29.74 836 24.69 29 84.3 15 0.3 32.5
18:40 1007 29.74 836 24.69 29 84.1 15 0.2 32.3
18:45 1007 29.74 836 24.69 28.6 83.5 15 0.1 32.2
18:50 1007 29.74 836 24.69 28.2 82.7 16 -0.1 31.9
18:55 1007 29.74 836 24.69 27.8 82 16 -0.2 31.7
19:00 1007 29.74 836 24.69 27.5 81.5 16 -0.3 31.4
19:05 1007 29.74 836 24.69 27.3 81.2 17 0.2 32.4
19:10 1007 29.74 836 24.69 27.3 81.2 16 -0.3 31.4
19:15 1007 29.74 836 24.69 27.1 80.8 17 0.5 32.9
19:20 1007 29.74 836 24.69 26.9 80.5 18 1 33.8
19:25 1007 29.74 836 24.69 26.9 80.4 19 1.6 34.8
19:30 1007 29.74 836 24.69 26.9 80.3 20 2.1 35.8
19:35 1007 29.74 836 24.69 26.7 80.1 20 2.3 36.2
19:40 1007 29.74 836 24.69 26.7 80 21 2.7 36.9
19:45 1007 29.74 837 24.72 26.7 80 21 3 37.5
19:50 1007 29.74 837 24.72 26.6 79.8 21 2.7 36.9
19:55 1007 29.74 837 24.72 26.5 79.6 21 2.7 36.9
20:00 1007 29.74 837 24.72 26.3 79.3 21 2.6 36.6
20:05 1007 29.74 837 24.72 26.1 78.9 21 2.3 36.1
20:10 1007 29.74 837 24.72 25.9 78.7 20 1.8 35.3
20:15 1007 29.74 837 24.72 25.6 78.1 21 1.8 35.2
20:20 1007 29.74 837 24.72 25.4 77.7 21 1.6 34.9
20:25 1008 29.77 837 24.72 25.3 77.5 21 1.5 34.6
20:30 1008 29.77 837 24.72 25.1 77.2 21 1.7 35
20:35 1008 29.77 837 24.72 24.9 76.9 22 1.7 35.1
20:40 1008 29.77 837 24.72 24.7 76.5 21 1.5 34.7
20:45 1008 29.77 837 24.72 24.5 76.1 22 1.7 35.1
20:50 1008 29.77 837 24.72 24.2 75.6 21 1 33.9
20:55 1008 29.77 837 24.72 24 75.2 21 0.5 33
21:00 1008 29.77 837 24.72 23.9 75 21 0.2 32.3
21:05 1008 29.77 837 24.72 23.7 74.6 20 -0.2 31.6
21:10 1008 29.77 837 24.72 23.5 74.3 20 -0.2 31.6
21:15 1008 29.77 837 24.72 23.3 73.9 21 0.1 32.1
21:20 1008 29.77 837 24.72 23 73.4 21 -0.4 31.2
21:25 1008 29.77 837 24.72 22.7 72.9 21 -0.4 31.2
21:30 1008 29.77 838 24.75 22.5 72.5 21 -0.4 31.2
21:35 1008 29.77 838 24.75 22.4 72.3 21 -0.6 31
21:40 1009 29.8 838 24.75 22.3 72.1 24 0.9 33.6
21:45 1009 29.8 838 24.75 20.5 69 28 1.8 35.3
21:50 1009 29.8 838 24.75 19.8 67.6 27 0.7 33.2
21:55 1009 29.8 838 24.75 20.2 68.3 26 0.4 32.7
22:00 1009 29.8 838 24.75 20.3 68.5 26 0.5 32.9
22:05 1009 29.8 838 24.75 20.1 68.1 27 0.8 33.5
22:10 1009 29.8 838 24.75 19.7 67.4 28 0.6 33.1
22:15 1009 29.8 838 24.75 19.6 67.3 28 0.7 33.3
22:20 1009 29.8 839 24.78 19.7 67.5 26 0.1 32.1
22:25 1009 29.8 839 24.78 19.6 67.2 26 -0.4 31.2
22:30 1009 29.8 839 24.78 19.5 67 26 -0.3 31.4
22:35 1010 29.83 839 24.78 19.3 66.8 24 -1.4 29.4
22:40 1010 29.83 839 24.78 19.9 67.9 22 -2.1 28.2
22:45 1010 29.83 839 24.78 20.3 68.6 24 -0.6 30.8
22:50 1010 29.83 839 24.78 20.3 68.5 25 -0.4 31.3
22:55 1010 29.83 839 24.78 19.8 67.6 26 0.1 32.3
23:00 1010 29.83 839 24.78 19.1 66.3 25 -1.2 29.8
23:05 1010 29.83 839 24.78 19.6 67.2 23 -1.9 28.6
23:10 1010 29.83 839 24.78 19.9 67.9 24 -1.2 29.8
23:15 1010 29.83 839 24.78 19.7 67.4 24 -1.4 29.5
23:20 1010 29.83 839 24.78 19.3 66.8 26 -0.4 31.4
23:25 1010 29.83 839 24.78 18.8 65.9 24 -1.8 28.8
23:30 1010 29.83 839 24.78 19 66.2 25 -1.5 29.3
23:35 1010 29.83 839 24.78 19 66.1 24 -1.9 28.6
23:40 1010 29.83 839 24.78 19.1 66.4 24 -1.5 29.2
23:45 1010 29.83 839 24.78 19.2 66.5 23 -2.1 28.1
23:50 1010 29.83 839 24.78 19.2 66.5 23 -2.1 28.1
23:55 1010 29.83 839 24.78 19.1 66.4 25 -1.3 29.7
24:00 1010 29.83 839 24.78 18.9 66 24 -2.2 28.1